Time;durP1;ratioP1;P1;durP2;ratioP2;P2;SDS_P1;SDS_P2;PMS_P1;PMS_P2;Temp;Humidity;BMP_temperature;BMP_pressure;BME280_temperature;BME280_humidity;BME280_pressure;Samples;Min_cycle;Max_cycle;Signal;HPM_P1;HPM_P2
2024/01/14 00:00:48;;;;;;;28.63;9.20;;;2.20;99.90;;;;;;5056935;28;20029;-73
2024/01/14 00:03:14;;;;;;;24.25;9.38;;;2.20;99.90;;;;;;5056117;28;20092;-74
2024/01/14 00:05:39;;;;;;;24.70;9.82;;;2.10;99.90;;;;;;5056741;28;20053;-73
2024/01/14 00:08:05;;;;;;;23.85;8.50;;;2.10;99.90;;;;;;5056384;28;20029;-73
2024/01/14 00:10:30;;;;;;;25.52;9.40;;;2.10;99.90;;;;;;5056142;28;20032;-73
2024/01/14 00:12:56;;;;;;;23.13;9.30;;;2.10;99.90;;;;;;5056104;28;20025;-72
2024/01/14 00:15:21;;;;;;;25.40;7.85;;;2.10;99.90;;;;;;5056618;28;20054;-73
2024/01/14 00:17:47;;;;;;;26.20;9.25;;;2.10;99.90;;;;;;5056735;28;20108;-73
2024/01/14 00:20:13;;;;;;;20.10;8.80;;;2.10;99.90;;;;;;5056049;28;20021;-73
2024/01/14 00:22:38;;;;;;;27.75;9.25;;;2.10;99.90;;;;;;5056783;28;20028;-73
2024/01/14 00:25:04;;;;;;;21.92;8.77;;;2.10;99.90;;;;;;5056409;28;20111;-73
2024/01/14 00:27:30;;;;;;;21.50;8.57;;;2.20;99.90;;;;;;5056389;28;20029;-73
2024/01/14 00:29:57;;;;;;;23.02;8.27;;;2.20;99.90;;;;;;5055825;28;20025;-73
2024/01/14 00:32:23;;;;;;;24.40;9.23;;;2.20;99.90;;;;;;5056307;28;20028;-73
2024/01/14 00:34:48;;;;;;;21.20;8.55;;;2.10;99.90;;;;;;5056076;28;20032;-73
2024/01/14 00:37:14;;;;;;;24.08;8.02;;;2.10;99.90;;;;;;5056028;28;20029;-73
2024/01/14 00:39:40;;;;;;;22.65;8.63;;;2.10;99.90;;;;;;5056008;28;20021;-73
2024/01/14 00:42:05;;;;;;;26.70;10.65;;;2.10;99.90;;;;;;5055807;28;20017;-73
2024/01/14 00:44:31;;;;;;;23.92;8.63;;;2.10;99.90;;;;;;5055926;28;20092;-73
2024/01/14 00:46:57;;;;;;;22.60;8.45;;;2.10;99.90;;;;;;5055951;28;20025;-73
2024/01/14 00:49:23;;;;;;;21.70;7.88;;;2.00;99.90;;;;;;5055677;28;20056;-73
2024/01/14 00:51:48;;;;;;;19.73;7.28;;;1.90;99.90;;;;;;5055772;28;20021;-73
2024/01/14 00:54:14;;;;;;;20.60;8.00;;;1.90;99.90;;;;;;5056591;28;20036;-73
2024/01/14 00:56:41;;;;;;;23.77;10.23;;;2.00;99.90;;;;;;5059668;28;20025;-73
2024/01/14 00:59:07;;;;;;;19.23;7.75;;;2.00;99.90;;;;;;5059540;28;20021;-73
2024/01/14 01:01:32;;;;;;;24.75;8.45;;;2.10;99.90;;;;;;5059569;28;20025;-73
2024/01/14 01:03:58;;;;;;;21.77;8.48;;;2.20;99.90;;;;;;5060608;28;20021;-73
2024/01/14 01:06:23;;;;;;;17.50;7.68;;;2.30;99.90;;;;;;5059665;28;20017;-73
2024/01/14 01:08:49;;;;;;;19.58;7.65;;;2.40;99.90;;;;;;5059392;28;20033;-73
2024/01/14 01:11:18;;;;;;;23.00;7.93;;;2.40;99.90;;;;;;5059288;28;20032;-73
2024/01/14 01:13:44;;;;;;;25.75;8.45;;;2.50;99.90;;;;;;5059616;28;20064;-73
2024/01/14 01:16:09;;;;;;;27.17;10.13;;;2.50;99.90;;;;;;5059571;28;20025;-73
2024/01/14 01:18:35;;;;;;;23.52;8.85;;;2.30;99.90;;;;;;5059016;28;20029;-73
2024/01/14 01:21:01;;;;;;;21.15;8.15;;;2.30;99.90;;;;;;5060107;28;20017;-73
2024/01/14 01:23:26;;;;;;;23.55;6.78;;;2.20;99.90;;;;;;5059665;28;20025;-73
2024/01/14 01:25:52;;;;;;;22.55;8.23;;;2.10;99.90;;;;;;5059363;28;20017;-73
2024/01/14 01:28:17;;;;;;;26.35;8.93;;;2.00;99.90;;;;;;5059308;28;20036;-73
2024/01/14 01:30:43;;;;;;;21.40;8.43;;;1.90;99.90;;;;;;5059331;28;20025;-73
2024/01/14 01:33:12;;;;;;;23.70;8.85;;;1.90;99.90;;;;;;5058982;28;20033;-73
2024/01/14 01:35:37;;;;;;;21.65;8.30;;;2.00;99.90;;;;;;5058962;28;20025;-73
2024/01/14 01:38:03;;;;;;;21.40;8.00;;;2.00;99.90;;;;;;5058613;28;20116;-73
2024/01/14 01:40:29;;;;;;;24.40;8.85;;;2.00;99.90;;;;;;5058661;28;20013;-73
2024/01/14 01:42:55;;;;;;;26.42;9.80;;;2.00;99.90;;;;;;5059618;28;20025;-73
2024/01/14 01:45:21;;;;;;;26.45;8.50;;;2.00;99.90;;;;;;5058896;28;20021;-73
2024/01/14 01:47:46;;;;;;;23.30;9.77;;;2.00;99.90;;;;;;5058783;28;20124;-73
2024/01/14 01:50:12;;;;;;;23.90;9.05;;;2.00;99.90;;;;;;5058870;28;20142;-73
2024/01/14 01:52:40;;;;;;;24.38;8.63;;;2.00;99.90;;;;;;5059688;28;20040;-73
2024/01/14 01:55:06;;;;;;;24.83;8.27;;;2.00;99.90;;;;;;5059602;28;20052;-73
2024/01/14 01:57:33;;;;;;;26.17;9.30;;;2.00;99.90;;;;;;5058489;28;20025;-73
2024/01/14 02:00:00;;;;;;;25.60;9.48;;;2.00;99.90;;;;;;5059512;28;20029;-73
2024/01/14 02:02:26;;;;;;;29.85;9.43;;;2.00;99.90;;;;;;5059134;28;20098;-73
2024/01/14 02:04:51;;;;;;;17.25;7.15;;;2.10;99.90;;;;;;5058231;28;20025;-73
2024/01/14 02:07:19;;;;;;;24.20;8.35;;;2.10;99.90;;;;;;5058581;28;20021;-73
2024/01/14 02:09:45;;;;;;;21.83;9.10;;;2.00;99.90;;;;;;5059417;28;20025;-73
2024/01/14 02:12:10;;;;;;;21.02;8.43;;;2.00;99.90;;;;;;5059432;28;20021;-73
2024/01/14 02:14:36;;;;;;;25.33;9.23;;;1.90;99.90;;;;;;5059119;28;20044;-74
2024/01/14 02:17:01;;;;;;;21.70;8.65;;;1.90;99.90;;;;;;5058886;28;20021;-74
2024/01/14 02:19:27;;;;;;;27.25;9.40;;;2.00;99.90;;;;;;5058875;28;20029;-73
2024/01/14 02:22:03;;;;;;;19.15;7.25;;;2.20;99.90;;;;;;5058038;28;20110;-73
2024/01/14 02:24:30;;;;;;;17.35;6.97;;;2.20;99.90;;;;;;5058924;28;20028;-73
2024/01/14 02:26:56;;;;;;;23.23;7.85;;;2.10;99.90;;;;;;5058022;28;20021;-73
2024/01/14 02:29:22;;;;;;;21.75;8.65;;;2.00;99.90;;;;;;5058759;28;20035;-73
2024/01/14 02:31:48;;;;;;;22.63;7.00;;;2.00;99.90;;;;;;5058144;28;20029;-73
2024/01/14 02:34:14;;;;;;;18.90;8.63;;;2.00;99.90;;;;;;5057904;28;20021;-73
2024/01/14 02:36:40;;;;;;;23.52;7.88;;;1.90;99.90;;;;;;5058512;28;20029;-72
2024/01/14 02:39:06;;;;;;;17.83;6.57;;;1.70;99.90;;;;;;5058325;28;20025;-73
2024/01/14 02:41:32;;;;;;;18.10;7.65;;;1.70;99.90;;;;;;5057617;28;20028;-73
2024/01/14 02:43:58;;;;;;;19.23;7.32;;;1.70;99.90;;;;;;5058487;28;20096;-73
2024/01/14 02:46:24;;;;;;;21.33;7.97;;;1.70;99.90;;;;;;5057565;28;20044;-73
2024/01/14 02:48:50;;;;;;;19.13;7.45;;;1.70;99.90;;;;;;5057646;28;20033;-73
2024/01/14 02:51:15;;;;;;;23.70;8.27;;;1.80;99.90;;;;;;5058162;28;20033;-73
2024/01/14 02:53:42;;;;;;;18.77;7.80;;;1.70;99.90;;;;;;5058284;28;20059;-73
2024/01/14 02:56:08;;;;;;;20.40;7.15;;;1.70;99.90;;;;;;5057892;28;20116;-73
2024/01/14 02:58:34;;;;;;;15.60;5.63;;;1.80;99.90;;;;;;5057532;28;20060;-73
2024/01/14 03:01:00;;;;;;;20.27;7.45;;;1.80;99.90;;;;;;5056982;28;20060;-73
2024/01/14 03:03:25;;;;;;;21.52;7.72;;;1.70;99.90;;;;;;5058439;28;20021;-72
2024/01/14 03:05:51;;;;;;;20.15;6.90;;;1.60;99.90;;;;;;5058245;28;20017;-73
2024/01/14 03:08:18;;;;;;;24.13;8.40;;;1.60;99.90;;;;;;5058120;28;20044;-73
2024/01/14 03:10:43;;;;;;;16.83;6.05;;;1.60;99.90;;;;;;5057171;28;20025;-74
2024/01/14 03:13:09;;;;;;;17.40;6.15;;;1.70;99.90;;;;;;5057378;28;20035;-73
2024/01/14 03:15:35;;;;;;;26.63;8.05;;;1.80;99.90;;;;;;5056814;28;20028;-73
2024/01/14 03:18:01;;;;;;;19.48;7.82;;;1.70;99.90;;;;;;5057534;28;20055;-73
2024/01/14 03:20:27;;;;;;;20.83;7.20;;;1.80;99.90;;;;;;5057058;28;20028;-73
2024/01/14 03:22:53;;;;;;;15.98;6.30;;;1.90;99.90;;;;;;5057777;28;20047;-73
2024/01/14 03:25:18;;;;;;;18.10;6.85;;;1.90;99.90;;;;;;5057169;28;20017;-73
2024/01/14 03:27:44;;;;;;;19.95;7.80;;;1.80;99.90;;;;;;5057080;28;20025;-73
2024/01/14 03:30:10;;;;;;;18.73;7.20;;;1.90;99.90;;;;;;5056585;28;20035;-73
2024/01/14 03:32:35;;;;;;;18.60;7.38;;;2.00;99.90;;;;;;5056516;28;20128;-73
2024/01/14 03:35:01;;;;;;;15.70;6.95;;;2.10;99.90;;;;;;5056442;28;20115;-73
2024/01/14 03:37:26;;;;;;;17.85;6.65;;;2.20;99.90;;;;;;5057052;28;20025;-73
2024/01/14 03:39:52;;;;;;;19.52;6.97;;;2.30;99.90;;;;;;5056772;28;20074;-73
2024/01/14 03:42:18;;;;;;;21.02;7.28;;;2.40;99.90;;;;;;5056393;28;20089;-73
2024/01/14 03:44:43;;;;;;;17.98;7.00;;;2.30;99.90;;;;;;5057519;28;20043;-73
2024/01/14 03:47:09;;;;;;;17.35;6.35;;;2.30;99.90;;;;;;5056766;28;20032;-73
2024/01/14 03:49:34;;;;;;;18.02;7.03;;;2.30;99.90;;;;;;5057593;28;20032;-73
2024/01/14 03:52:00;;;;;;;21.13;6.85;;;2.30;99.90;;;;;;5056779;28;20021;-73
2024/01/14 03:54:26;;;;;;;16.75;6.32;;;2.20;99.90;;;;;;5057263;28;20055;-73
2024/01/14 03:56:51;;;;;;;14.77;6.20;;;2.00;99.90;;;;;;5057331;28;20021;-73
2024/01/14 03:59:17;;;;;;;19.25;6.35;;;1.90;99.90;;;;;;5057609;28;20079;-73
2024/01/14 04:01:45;;;;;;;15.27;5.97;;;1.90;99.90;;;;;;5056122;28;20036;-73
2024/01/14 04:04:10;;;;;;;17.08;5.80;;;1.90;99.90;;;;;;5057298;28;20061;-73
2024/01/14 04:06:36;;;;;;;20.13;7.38;;;1.90;99.90;;;;;;5057279;28;20021;-73
2024/01/14 04:09:02;;;;;;;16.50;7.05;;;2.00;99.90;;;;;;5057059;28;20074;-73
2024/01/14 04:11:28;;;;;;;14.63;6.55;;;2.00;99.90;;;;;;5056878;28;20025;-73
2024/01/14 04:13:53;;;;;;;18.60;5.80;;;2.00;99.90;;;;;;5057532;28;20078;-73
2024/01/14 04:16:19;;;;;;;20.98;7.90;;;1.90;99.90;;;;;;5057122;28;20120;-73
2024/01/14 04:18:45;;;;;;;19.48;7.35;;;1.80;99.90;;;;;;5056945;28;20100;-73
2024/01/14 04:21:24;;;;;;;19.35;7.30;;;1.80;99.90;;;;;;5056797;28;20067;-73
2024/01/14 04:23:50;;;;;;;16.85;6.10;;;1.80;99.90;;;;;;5055910;28;20021;-73
2024/01/14 04:26:22;;;;;;;17.75;6.82;;;1.80;99.90;;;;;;5055892;28;20024;-73
2024/01/14 04:28:52;;;;;;;18.40;6.57;;;1.80;99.90;;;;;;5056624;28;20032;-73
2024/01/14 04:31:18;;;;;;;18.85;7.13;;;1.80;99.90;;;;;;5061153;28;20025;-73
2024/01/14 04:33:45;;;;;;;24.67;7.65;;;1.80;99.90;;;;;;5060185;28;20024;-73
2024/01/14 04:36:10;;;;;;;18.30;6.25;;;1.90;99.90;;;;;;5061210;28;20060;-73
2024/01/14 04:38:36;;;;;;;19.55;6.85;;;1.90;99.90;;;;;;5060876;28;20056;-73
2024/01/14 04:41:01;;;;;;;15.88;6.15;;;1.90;99.90;;;;;;5059883;28;20055;-73
2024/01/14 04:43:28;;;;;;;15.35;7.72;;;2.00;99.90;;;;;;5060976;28;20095;-73
2024/01/14 04:45:53;;;;;;;19.33;7.00;;;2.00;99.90;;;;;;5060662;28;20024;-73
2024/01/14 04:48:19;;;;;;;22.17;7.25;;;2.00;99.90;;;;;;5060036;28;20024;-73
2024/01/14 04:50:44;;;;;;;20.85;6.63;;;2.00;99.90;;;;;;5059738;28;20060;-73
2024/01/14 04:53:11;;;;;;;20.83;7.03;;;2.20;99.90;;;;;;5059728;28;20034;-73
2024/01/14 04:55:37;;;;;;;12.82;6.32;;;2.10;99.90;;;;;;5059764;28;20025;-75
2024/01/14 04:58:03;;;;;;;16.58;6.65;;;2.10;99.90;;;;;;5059835;28;20120;-73
2024/01/14 05:00:29;;;;;;;21.23;6.95;;;2.10;99.90;;;;;;5059634;28;20021;-73
2024/01/14 05:02:54;;;;;;;23.42;7.22;;;2.00;99.90;;;;;;5060085;28;20037;-73
2024/01/14 05:05:20;;;;;;;16.70;6.35;;;2.00;99.90;;;;;;5060238;28;20088;-73
2024/01/14 05:07:45;;;;;;;17.58;7.15;;;1.90;99.90;;;;;;5060270;28;20155;-74
2024/01/14 05:10:11;;;;;;;19.45;6.57;;;1.90;99.90;;;;;;5059330;28;20052;-73
2024/01/14 05:12:36;;;;;;;18.23;5.80;;;1.90;99.90;;;;;;5059208;28;20120;-74
2024/01/14 05:15:03;;;;;;;22.00;7.25;;;1.90;99.90;;;;;;5059438;28;20021;-73
2024/01/14 05:17:28;;;;;;;19.30;7.10;;;1.90;99.90;;;;;;5059479;28;20032;-73
2024/01/14 05:19:54;;;;;;;23.25;6.85;;;2.00;99.90;;;;;;5059697;28;20025;-73
2024/01/14 05:22:20;;;;;;;17.85;6.90;;;2.00;99.90;;;;;;5059011;28;20021;-73
2024/01/14 05:24:46;;;;;;;21.55;8.38;;;2.10;99.90;;;;;;5059103;28;20021;-73
2024/01/14 05:27:12;;;;;;;18.95;6.18;;;2.10;99.90;;;;;;5059018;28;20117;-73
2024/01/14 05:29:41;;;;;;;17.98;7.10;;;2.20;99.90;;;;;;5059258;28;20031;-73
2024/01/14 05:32:08;;;;;;;22.13;7.43;;;2.10;99.90;;;;;;5059621;28;20110;-73
2024/01/14 05:34:34;;;;;;;14.45;6.60;;;2.10;99.90;;;;;;5059001;28;20035;-73
2024/01/14 05:37:01;;;;;;;15.13;6.30;;;2.10;99.90;;;;;;5059421;28;20025;-73
2024/01/14 05:39:27;;;;;;;24.70;7.88;;;2.10;99.90;;;;;;5058884;28;20021;-73
2024/01/14 05:41:52;;;;;;;17.80;6.20;;;2.00;99.90;;;;;;5058469;28;20028;-73
2024/01/14 05:44:18;;;;;;;19.17;6.93;;;2.10;99.90;;;;;;5058765;28;20111;-73
2024/01/14 05:46:43;;;;;;;15.20;6.32;;;2.10;99.90;;;;;;5058662;28;20021;-73
2024/01/14 05:49:10;;;;;;;20.25;6.82;;;2.10;99.90;;;;;;5058712;28;20040;-73
2024/01/14 05:51:36;;;;;;;19.10;6.75;;;2.20;99.90;;;;;;5058561;28;20120;-73
2024/01/14 05:54:02;;;;;;;13.15;6.00;;;2.20;99.90;;;;;;5058584;28;20044;-73
2024/01/14 05:56:29;;;;;;;14.07;6.35;;;2.30;99.90;;;;;;5058559;28;20031;-73
2024/01/14 05:58:55;;;;;;;19.65;5.78;;;2.30;99.90;;;;;;5059138;28;20116;-73
2024/01/14 06:01:20;;;;;;;13.90;5.60;;;2.30;99.90;;;;;;5058358;28;20056;-73
2024/01/14 06:03:46;;;;;;;19.85;6.85;;;2.30;99.90;;;;;;5058254;28;20071;-73
2024/01/14 06:06:12;;;;;;;17.83;5.75;;;2.20;99.90;;;;;;5058611;28;20021;-73
2024/01/14 06:08:37;;;;;;;13.77;5.25;;;2.10;99.90;;;;;;5058442;28;20021;-73
2024/01/14 06:11:04;;;;;;;22.15;6.55;;;2.00;99.90;;;;;;5058901;28;20029;-73
2024/01/14 06:13:30;;;;;;;14.32;6.47;;;1.90;99.90;;;;;;5059172;28;20029;-73
2024/01/14 06:15:56;;;;;;;18.83;6.95;;;1.90;99.90;;;;;;5058812;28;20029;-73
2024/01/14 06:18:21;;;;;;;15.40;6.15;;;2.00;99.90;;;;;;5058347;28;20112;-73
2024/01/14 06:20:48;;;;;;;16.33;6.68;;;2.10;99.90;;;;;;5058229;28;20056;-74
2024/01/14 06:23:13;;;;;;;20.48;6.97;;;2.10;99.90;;;;;;5058088;28;20025;-73
2024/01/14 06:25:39;;;;;;;16.42;6.25;;;2.20;99.90;;;;;;5058295;28;20039;-73
2024/01/14 06:28:06;;;;;;;19.45;6.20;;;2.20;99.90;;;;;;5057908;28;20110;-73
2024/01/14 06:30:33;;;;;;;17.00;6.20;;;2.20;99.90;;;;;;5058014;28;20035;-73
2024/01/14 06:32:58;;;;;;;18.98;7.10;;;2.30;99.90;;;;;;5057807;28;20092;-73
2024/01/14 06:35:24;;;;;;;20.92;6.55;;;2.30;99.90;;;;;;5058920;28;20052;-73
2024/01/14 06:37:50;;;;;;;20.75;6.88;;;2.30;99.90;;;;;;5058362;28;20119;-73
2024/01/14 06:40:16;;;;;;;14.65;6.20;;;2.30;99.90;;;;;;5058268;28;20017;-73
2024/01/14 06:42:42;;;;;;;17.52;6.22;;;2.30;99.90;;;;;;5057966;28;20088;-73
2024/01/14 06:45:08;;;;;;;16.75;5.88;;;2.30;99.90;;;;;;5058417;28;20021;-73
2024/01/14 06:47:34;;;;;;;13.77;5.78;;;2.30;99.90;;;;;;5057485;28;20029;-73
2024/01/14 06:50:00;;;;;;;15.55;6.07;;;2.30;99.90;;;;;;5058186;28;20021;-74
2024/01/14 06:52:25;;;;;;;15.02;6.35;;;2.20;99.90;;;;;;5057364;28;20013;-73
2024/01/14 06:54:51;;;;;;;19.85;6.47;;;2.30;99.90;;;;;;5057485;28;20120;-74
2024/01/14 06:57:17;;;;;;;14.77;5.70;;;2.30;99.90;;;;;;5058020;28;20025;-73
2024/01/14 06:59:43;;;;;;;17.85;6.97;;;2.40;99.90;;;;;;5057591;28;20108;-73
2024/01/14 07:02:08;;;;;;;17.60;5.97;;;2.30;99.90;;;;;;5057276;28;20029;-74
2024/01/14 07:04:34;;;;;;;18.48;6.32;;;2.30;99.90;;;;;;5057459;28;20032;-74
2024/01/14 07:07:00;;;;;;;15.38;5.82;;;2.30;99.90;;;;;;5057528;28;20028;-73
2024/01/14 07:09:25;;;;;;;13.10;6.03;;;2.40;99.90;;;;;;5057938;28;20029;-73
2024/01/14 07:11:51;;;;;;;17.90;6.30;;;2.40;99.90;;;;;;5057714;28;20049;-73
2024/01/14 07:14:17;;;;;;;16.38;6.63;;;2.40;99.90;;;;;;5057389;28;20048;-73
2024/01/14 07:16:42;;;;;;;12.30;5.28;;;2.40;99.90;;;;;;5058039;28;20031;-73
2024/01/14 07:19:08;;;;;;;16.77;5.97;;;2.40;99.90;;;;;;5057133;28;20017;-73
2024/01/14 07:21:33;;;;;;;17.90;6.35;;;2.40;99.90;;;;;;5057831;28;20021;-74
2024/01/14 07:23:59;;;;;;;15.65;6.05;;;2.40;99.90;;;;;;5057394;28;20085;-74
2024/01/14 07:26:25;;;;;;;12.45;5.93;;;2.40;99.90;;;;;;5056882;28;20056;-73
2024/01/14 07:28:54;;;;;;;19.17;5.97;;;2.50;99.90;;;;;;5057015;28;20032;-73
2024/01/14 07:31:22;;;;;;;17.20;6.32;;;2.50;99.90;;;;;;5056900;28;20028;-73
2024/01/14 07:33:50;;;;;;;15.75;6.75;;;2.50;99.90;;;;;;5056758;28;20021;-73
2024/01/14 07:36:15;;;;;;;15.07;6.15;;;2.50;99.90;;;;;;5057402;28;20029;-73
2024/01/14 07:38:41;;;;;;;17.23;6.45;;;2.50;99.90;;;;;;5056574;28;20028;-73
2024/01/14 07:41:19;;;;;;;15.40;6.07;;;2.50;99.90;;;;;;5074449;28;20417;-74
2024/01/14 07:43:45;;;;;;;17.13;5.75;;;2.40;99.90;;;;;;5074660;28;20025;-74
2024/01/14 07:46:11;;;;;;;14.23;6.30;;;2.30;99.90;;;;;;5074481;28;20116;-74
2024/01/14 07:48:37;;;;;;;21.55;6.75;;;2.30;99.90;;;;;;5074356;28;20028;-74
2024/01/14 07:51:03;;;;;;;16.13;5.97;;;2.30;99.90;;;;;;5073685;28;20036;-74
2024/01/14 07:53:29;;;;;;;14.70;5.28;;;2.30;99.90;;;;;;5074444;28;20029;-74
2024/01/14 07:55:54;;;;;;;14.48;6.45;;;2.30;99.90;;;;;;5074075;28;20020;-74
2024/01/14 07:58:20;;;;;;;18.40;6.13;;;2.30;99.90;;;;;;5074156;28;20033;-74
2024/01/14 08:00:46;;;;;;;17.80;6.30;;;2.40;99.90;;;;;;5073128;28;20120;-74
2024/01/14 08:03:11;;;;;;;16.25;5.80;;;2.40;99.90;;;;;;5073502;28;20098;-74
2024/01/14 08:05:40;;;;;;;15.57;5.28;;;2.30;99.90;;;;;;5073809;28;20021;-74
2024/01/14 08:08:06;;;;;;;15.43;5.93;;;2.40;99.90;;;;;;5072974;28;20116;-75
2024/01/14 08:10:32;;;;;;;14.50;4.70;;;2.50;99.90;;;;;;5072932;28;20064;-74
2024/01/14 08:12:58;;;;;;;13.27;5.55;;;2.50;99.90;;;;;;5073069;28;20088;-74
2024/01/14 08:15:24;;;;;;;15.75;5.85;;;2.50;99.90;;;;;;5072976;28;20118;-74
2024/01/14 08:17:50;;;;;;;17.05;5.90;;;2.30;99.90;;;;;;5072816;28;20036;-74
2024/01/14 08:20:15;;;;;;;10.45;4.78;;;2.30;99.90;;;;;;5073574;28;20028;-74
2024/01/14 08:22:41;;;;;;;15.40;5.90;;;2.40;99.90;;;;;;5073978;28;20028;-74
2024/01/14 08:25:10;;;;;;;18.85;6.13;;;2.40;99.90;;;;;;5073462;28;20059;-74
2024/01/14 08:27:36;;;;;;;14.68;5.60;;;2.50;99.90;;;;;;5073616;28;20045;-74
2024/01/14 08:30:04;;;;;;;11.95;5.38;;;2.60;99.90;;;;;;5073314;28;20025;-74
2024/01/14 08:32:30;;;;;;;13.88;5.30;;;2.60;99.90;;;;;;5072363;28;20025;-75
2024/01/14 08:34:55;;;;;;;13.88;5.38;;;2.70;99.90;;;;;;5073343;28;20021;-74
2024/01/14 08:37:21;;;;;;;20.60;5.68;;;2.70;99.90;;;;;;5072361;28;20092;-74
2024/01/14 08:39:48;;;;;;;15.82;4.85;;;2.70;99.90;;;;;;5073142;28;20029;-74
2024/01/14 08:42:13;;;;;;;14.00;6.25;;;2.80;99.90;;;;;;5072372;28;20027;-75
2024/01/14 08:44:39;;;;;;;14.30;5.38;;;2.80;99.90;;;;;;5072602;28;20116;-75
2024/01/14 08:47:04;;;;;;;15.13;5.65;;;2.80;99.90;;;;;;5072758;28;20079;-74
2024/01/14 08:49:30;;;;;;;14.50;6.60;;;2.70;99.90;;;;;;5072587;28;20028;-74
2024/01/14 08:51:56;;;;;;;14.65;5.88;;;2.60;99.90;;;;;;5062965;28;20164;-74
2024/01/14 08:54:22;;;;;;;13.70;4.47;;;2.50;99.90;;;;;;5059879;28;20162;-74
2024/01/14 08:56:48;;;;;;;13.95;5.22;;;2.50;99.90;;;;;;5060040;28;20150;-74
2024/01/14 08:59:13;;;;;;;15.27;4.95;;;2.50;99.90;;;;;;5058735;28;20123;-74
2024/01/14 09:01:39;;;;;;;14.13;5.43;;;2.50;99.90;;;;;;5059539;28;20182;-75
2024/01/14 09:04:05;;;;;;;16.20;5.78;;;2.50;99.90;;;;;;5058652;28;20021;-74
2024/01/14 09:06:30;;;;;;;16.35;5.80;;;2.60;99.90;;;;;;5058583;28;20098;-74
2024/01/14 09:08:56;;;;;;;12.13;5.90;;;2.60;99.90;;;;;;5059384;28;20013;-74
2024/01/14 09:11:21;;;;;;;15.32;6.10;;;2.60;99.90;;;;;;5059173;28;20025;-74
2024/01/14 09:13:47;;;;;;;15.85;5.55;;;2.70;99.90;;;;;;5058306;28;20043;-74
2024/01/14 09:16:13;;;;;;;12.50;5.25;;;2.70;99.90;;;;;;5059560;28;20021;-74
2024/01/14 09:18:38;;;;;;;14.10;5.47;;;2.70;99.90;;;;;;5059820;28;20021;-74
2024/01/14 09:21:04;;;;;;;17.27;5.53;;;2.70;99.90;;;;;;5058888;28;20099;-74
2024/01/14 09:23:31;;;;;;;13.25;5.60;;;2.60;99.90;;;;;;5058334;28;20049;-74
2024/01/14 09:25:57;;;;;;;16.27;5.80;;;2.70;99.90;;;;;;5059146;28;20017;-74
2024/01/14 09:28:25;;;;;;;16.13;6.10;;;2.70;99.90;;;;;;5058190;28;20028;-74
2024/01/14 09:30:51;;;;;;;13.90;5.20;;;2.70;99.90;;;;;;5059359;28;20025;-75
2024/01/14 09:33:17;;;;;;;12.10;5.85;;;2.70;99.90;;;;;;5058985;28;20025;-74
2024/01/14 09:35:43;;;;;;;17.17;6.07;;;2.60;99.90;;;;;;5058094;28;20036;-74
2024/01/14 09:38:09;;;;;;;15.98;5.35;;;2.50;99.90;;;;;;5058143;28;20029;-74
2024/01/14 09:40:37;;;;;;;13.68;5.75;;;2.50;99.90;;;;;;5058908;28;20139;-74
2024/01/14 09:43:06;;;;;;;19.35;6.55;;;2.40;99.90;;;;;;5058856;28;20051;-74
2024/01/14 09:45:34;;;;;;;12.98;4.85;;;2.50;99.90;;;;;;5058821;28;20025;-74
2024/01/14 09:48:01;;;;;;;14.70;5.97;;;2.50;99.90;;;;;;5057938;28;20059;-74
2024/01/14 09:50:27;;;;;;;15.80;5.70;;;2.40;99.90;;;;;;5058977;28;20108;-74
2024/01/14 09:52:55;;;;;;;11.15;5.40;;;2.30;99.90;;;;;;5058609;28;20033;-75
2024/01/14 09:55:20;;;;;;;10.43;4.28;;;2.40;99.90;;;;;;5057816;28;20163;-74
2024/01/14 09:57:49;;;;;;;12.68;4.97;;;2.50;99.90;;;;;;5058644;28;20064;-74
2024/01/14 10:00:15;;;;;;;14.38;5.70;;;2.40;99.90;;;;;;5058655;28;20021;-74
2024/01/14 10:02:40;;;;;;;13.40;5.40;;;2.30;99.90;;;;;;5056665;28;20022;-74
2024/01/14 10:05:07;;;;;;;15.77;5.38;;;2.40;99.90;;;;;;5058285;28;20017;-74
2024/01/14 10:07:33;;;;;;;13.52;5.85;;;2.40;99.90;;;;;;5057485;28;20024;-74
2024/01/14 10:09:58;;;;;;;18.83;6.15;;;2.40;99.90;;;;;;5058281;28;20048;-74
2024/01/14 10:12:26;;;;;;;17.02;5.20;;;2.30;99.90;;;;;;5057287;28;20107;-74
2024/01/14 10:14:58;;;;;;;14.75;5.63;;;2.20;99.90;;;;;;5058563;28;20108;-75
2024/01/14 10:17:25;;;;;;;16.48;5.45;;;2.20;99.90;;;;;;5057395;28;20021;-74
2024/01/14 10:19:54;;;;;;;17.85;6.30;;;2.30;99.90;;;;;;5057118;28;20025;-74
2024/01/14 10:22:21;;;;;;;15.88;5.63;;;2.30;99.90;;;;;;5057550;28;20123;-74
2024/01/14 10:24:56;;;;;;;17.17;5.43;;;2.30;99.90;;;;;;5058088;28;20017;-74
2024/01/14 10:27:23;;;;;;;15.23;6.15;;;2.40;99.90;;;;;;5057949;28;20025;-74
2024/01/14 10:29:49;;;;;;;15.13;4.60;;;2.40;99.90;;;;;;5057953;28;20078;-74
2024/01/14 10:32:15;;;;;;;10.13;4.57;;;2.50;99.90;;;;;;5057609;28;20036;-74
2024/01/14 10:34:41;;;;;;;13.73;5.32;;;2.50;99.90;;;;;;5057909;28;20035;-74
2024/01/14 10:37:07;;;;;;;15.30;5.65;;;2.50;99.90;;;;;;5058037;28;20025;-74
2024/01/14 10:39:34;;;;;;;13.77;4.80;;;2.60;99.90;;;;;;5057499;28;20059;-74
2024/01/14 10:42:00;;;;;;;16.17;6.05;;;2.60;99.90;;;;;;5057780;28;20044;-74
2024/01/14 10:44:26;;;;;;;15.23;6.10;;;2.50;99.90;;;;;;5057582;28;20066;-74
2024/01/14 10:46:53;;;;;;;13.25;5.13;;;2.50;99.90;;;;;;5057131;28;20022;-74
2024/01/14 10:49:25;;;;;;;13.48;6.00;;;2.40;99.90;;;;;;5057536;28;20025;-74
2024/01/14 10:51:55;;;;;;;;;;;2.40;99.90;;;;;;5057899;28;20029;-74
2024/01/14 10:54:55;;;;;;;14.32;5.15;;;2.40;99.90;;;;;;5056633;28;19955;-74
2024/01/14 10:57:34;;;;;;;12.75;5.03;;;2.30;99.90;;;;;;5035963;28;20033;-74
2024/01/14 11:00:04;;;;;;;13.90;5.43;;;2.30;99.90;;;;;;5035887;28;20033;-74
2024/01/14 11:02:32;;;;;;;11.15;4.90;;;2.50;99.90;;;;;;5035887;28;20091;-74
2024/01/14 11:04:58;;;;;;;15.80;6.15;;;2.40;99.90;;;;;;5035835;28;20029;-74
2024/01/14 11:07:24;;;;;;;17.73;6.80;;;2.40;99.90;;;;;;5036539;28;20033;-74
2024/01/14 11:09:52;;;;;;;19.50;5.05;;;2.40;99.90;;;;;;5036493;28;20032;-75
2024/01/14 11:12:21;;;;;;;17.02;6.38;;;2.40;99.90;;;;;;5019098;28;20036;-74
2024/01/14 11:14:55;;;;;;;14.65;5.90;;;2.50;99.90;;;;;;5035592;28;20145;-74
2024/01/14 11:17:50;;;;;;;13.98;5.78;;;2.40;99.90;;;;;;5019737;28;20033;-75
2024/01/14 11:20:18;;;;;;;18.45;5.47;;;2.40;99.90;;;;;;5035658;28;20080;-74
2024/01/14 11:22:44;;;;;;;14.45;5.70;;;2.40;99.90;;;;;;5035488;28;20018;-74
2024/01/14 11:25:16;;;;;;;15.10;5.63;;;2.30;99.90;;;;;;5019118;28;20029;-74
2024/01/14 11:27:43;;;;;;;16.88;5.35;;;2.40;99.90;;;;;;5035738;28;20087;-74
2024/01/14 11:30:11;;;;;;;16.42;6.10;;;2.40;99.90;;;;;;5035498;28;20030;-74
2024/01/14 11:32:37;;;;;;;15.55;5.90;;;2.40;99.90;;;;;;5044165;28;20033;-74
2024/01/14 11:35:03;;;;;;;16.17;6.20;;;2.40;99.90;;;;;;5056182;28;20040;-74
2024/01/14 11:37:29;;;;;;;14.18;5.32;;;2.40;99.90;;;;;;5056300;28;20029;-74
2024/01/14 11:40:11;;;;;;;12.55;4.53;;;2.30;99.90;;;;;;5056737;28;20033;-74
2024/01/14 11:43:00;;;;;;;12.52;5.03;;;2.20;99.90;;;;;;5055813;28;20100;-74
2024/01/14 11:45:26;;;;;;;14.77;5.18;;;2.10;99.90;;;;;;5049994;28;20071;-74
2024/01/14 11:47:53;;;;;;;12.25;4.60;;;2.10;99.90;;;;;;5055825;28;20017;-74
2024/01/14 11:50:19;;;;;;;16.05;6.18;;;2.10;99.90;;;;;;5055826;28;20091;-74
2024/01/14 11:52:50;;;;;;;15.88;6.40;;;2.30;99.90;;;;;;5056803;28;20017;-74
2024/01/14 11:55:30;;;;;;;12.48;5.90;;;2.30;99.90;;;;;;5056879;28;20024;-74
2024/01/14 11:58:17;;;;;;;13.02;5.68;;;2.30;99.90;;;;;;5056818;28;20025;-75
2024/01/14 12:00:44;;;;;;;12.50;4.85;;;2.30;99.90;;;;;;5056879;28;20025;-74
2024/01/14 12:03:12;;;;;;;11.90;5.25;;;2.30;99.90;;;;;;5056691;28;20028;-74
2024/01/14 12:05:40;;;;;;;15.15;4.78;;;2.30;99.90;;;;;;5056655;28;20108;-74
2024/01/14 12:08:05;;;;;;;13.13;5.28;;;2.40;99.90;;;;;;5056579;28;20025;-74
2024/01/14 12:10:32;;;;;;;14.75;5.10;;;2.40;99.90;;;;;;5055696;28;20025;-74
2024/01/14 12:12:59;;;;;;;13.90;5.32;;;2.40;99.90;;;;;;5056835;28;20031;-74
2024/01/14 12:15:26;;;;;;;16.63;5.38;;;2.50;99.90;;;;;;5055923;28;20029;-75
2024/01/14 12:18:02;;;;;;;16.33;5.07;;;2.50;99.90;;;;;;5056637;28;20025;-74
2024/01/14 12:20:28;;;;;;;12.93;5.07;;;2.40;99.90;;;;;;5055321;28;20025;-74
2024/01/14 12:22:55;;;;;;;15.05;5.22;;;2.40;99.90;;;;;;5056517;28;20029;-74
2024/01/14 12:25:20;;;;;;;11.45;4.75;;;2.40;99.90;;;;;;5056720;28;20021;-74
2024/01/14 12:27:46;;;;;;;16.48;6.00;;;2.50;99.90;;;;;;5058833;28;20108;-73
2024/01/14 12:30:22;;;;;;;13.90;4.90;;;2.60;99.90;;;;;;5059499;28;20079;-75
2024/01/14 12:32:48;;;;;;;14.23;5.93;;;2.70;99.90;;;;;;5060312;28;20031;-75
2024/01/14 12:35:14;;;;;;;13.18;5.13;;;2.70;99.90;;;;;;5060100;28;20029;-74
2024/01/14 12:37:40;;;;;;;12.32;4.75;;;2.80;99.90;;;;;;5060581;28;20029;-74
2024/01/14 12:40:06;;;;;;;14.85;5.68;;;2.90;99.90;;;;;;5059210;28;20036;-75
2024/01/14 12:42:32;;;;;;;13.95;5.80;;;2.90;99.90;;;;;;5059937;28;20021;-74
2024/01/14 12:44:59;;;;;;;11.57;4.93;;;2.90;99.90;;;;;;5059351;28;20027;-74